Terminal Aerodrome Forecast
Issued by NWS Kansas City/Pleasant Hill, MO

Home | Current Version | Previous Version | Text Only | Print | Product List | Glossary On
Versions: 1 2 3 4 5 6 7 8 9 10 11 12 13 14 15
000
FTUS43 KEAX 210520
TAFMCI
TAF
KMCI 210520Z 2106/2206 12006KT 5SM BR FEW050
     FM210800 14006KT 5SM BR BKN015
     FM210900 15006KT 5SM BR OVC004
     FM211600 15008KT P6SM OVC008
     FM211800 17008KT P6SM VCSH OVC015
     FM220400 17009KT P6SM VCSH OVC035=

USA.gov is the U.S. government's official web portal to all federal, state and local government web resources and services.